CLT TRACON Summary / KCLT TAF
CLT TRACON Summary:
Scattered showers and thunderstorms over W SC/NC will move east to northeast at 5-10kts and diminish to isolated showers by 02-03z. Expect VFR conditions in the TRACON outside convection. Surface winds will be south to southwest at 3-7kts. Flight hazards in the TRACON airspace outside convection: None expected.

Updated:7/25/2016 9:31 PM
CLT Terminal Aerodrome Forecast:

FTUS31 KCLT 260542
KCLT 260540Z 2606/2706 20006KT P6SM FEW060 FEW250
     FM261100 21003KT P6SM FEW200
     FM261800 22006KT P6SM BKN060 PROB30 2700/2705 4SM -TSRA
      BKN060CB
CLT TRACON Area Remark:
ISOLATED TS POSSIBLE SW/W/NW UNTIL 02Z.
Convective Gate Forecast / Collaborative Convective Forecast Product / Vertical Wind Profile
Convective Gate Forecast
SIGMETS/ Southeast Radar & Satellite Loops (click on image to enlarge)

Southeast Radar Loop

 



USA.gov is the U.S. government's official web portal to all federal, state and local government web resources and services.